Time;durP1;ratioP1;P1;durP2;ratioP2;P2;SDS_P1;SDS_P2;PMS_P1;PMS_P2;Temp;Humidity;BMP_temperature;BMP_pressure;BME280_temperature;BME280_humidity;BME280_pressure;Samples;Min_cycle;Max_cycle;Signal;HPM_P1;HPM_P2
2022/11/21 00:01:23;;;;;;;;;;;;;;;-0.42;77.04;99625.34;5046771;28;19916;-33
2022/11/21 00:03:49;;;;;;;;;;;;;;;-0.41;77.18;99616.69;5048590;28;19971;-34
2022/11/21 00:06:14;;;;;;;;;;;;;;;-0.41;77.14;99614.13;5063204;28;19929;-33
2022/11/21 00:08:39;;;;;;;;;;;;;;;-0.41;77.74;99606.34;5027623;28;19923;-33
2022/11/21 00:11:05;;;;;;;;;;;;;;;-0.41;77.65;99601.16;5062983;28;19948;-33
2022/11/21 00:13:30;;;;;;;;;;;;;;;-0.39;77.14;99607.22;5047632;28;19921;-34
2022/11/21 00:15:55;;;;;;;;;;;;;;;-0.38;77.60;99605.53;5046192;28;19937;-34
2022/11/21 00:18:20;;;;;;;;;;;;;;;-0.37;77.41;99609.00;5049095;28;19971;-33
2022/11/21 00:20:45;;;;;;;;;;;;;;;-0.37;77.05;99602.06;5047566;28;19928;-33
2022/11/21 00:23:11;;;;;;;;;;;;;;;-0.35;77.27;99604.69;5047288;28;19967;-34
2022/11/21 00:25:36;;;;;;;;;;;;;;;-0.36;77.55;99610.72;5049046;28;20020;-33
2022/11/21 00:28:01;;;;;;;;;;;;;;;-0.35;77.09;99599.50;5048816;28;20355;-33
2022/11/21 00:30:27;;;;;;;;;;;;;;;-0.34;77.66;99607.31;5049306;28;19921;-34
2022/11/21 00:32:52;;;;;;;;;;;;;;;-0.34;77.21;99593.50;5049478;28;19943;-30
2022/11/21 00:35:17;;;;;;;;;;;;;;;-0.33;77.28;99585.72;5048410;28;20019;-34
2022/11/21 00:37:43;;;;;;;;;;;;;;;-0.33;77.65;99590.91;5030935;28;19924;-33
2022/11/21 00:40:08;;;;;;;;;;;;;;;-0.33;77.18;99575.38;5015630;28;19920;-33
2022/11/21 00:42:34;;;;;;;;;;;;;;;-0.32;77.17;99576.25;5064525;28;19971;-33
2022/11/21 00:44:59;;;;;;;;;;;;;;;-0.33;77.16;99579.69;5031659;28;20422;-32
2022/11/21 00:47:24;;;;;;;;;;;;;;;-0.32;77.26;99578.84;5048689;28;19960;-34
2022/11/21 00:49:49;;;;;;;;;;;;;;;-0.30;77.37;99571.97;5044521;28;20367;-33
2022/11/21 00:52:15;;;;;;;;;;;;;;;-0.31;77.11;99578.00;5047306;28;19917;-32
2022/11/21 00:54:40;;;;;;;;;;;;;;;-0.29;77.51;99573.72;5048030;28;20363;-34
2022/11/21 00:57:06;;;;;;;;;;;;;;;-0.30;77.64;99569.41;5047722;28;19917;-34
2022/11/21 00:59:31;;;;;;;;;;;;;;;-0.30;77.70;99569.41;5029004;28;20069;-33
2022/11/21 01:01:57;;;;;;;;;;;;;;;-0.29;77.53;99563.34;5046200;28;19979;-33
2022/11/21 01:04:22;;;;;;;;;;;;;;;-0.30;77.51;99557.28;5019993;28;20438;-34
2022/11/21 01:06:47;;;;;;;;;;;;;;;-0.29;77.54;99560.75;5062576;28;19986;-34
2022/11/21 01:09:13;;;;;;;;;;;;;;;-0.26;77.11;99558.22;5045534;28;19973;-34
2022/11/21 01:11:38;;;;;;;;;;;;;;;-0.26;77.27;99553.03;5046409;28;20330;-34
2022/11/21 01:14:03;;;;;;;;;;;;;;;-0.27;77.62;99541.78;5052399;28;19921;-34
2022/11/21 01:16:29;;;;;;;;;;;;;;;-0.25;77.50;99547.00;5049573;28;19917;-33
2022/11/21 01:18:54;;;;;;;;;;;;;;;-0.27;77.36;99549.56;5049215;28;19917;-31
2022/11/21 01:21:20;;;;;;;;;;;;;;;-0.26;77.24;99537.50;5033432;28;19921;-33
2022/11/21 01:23:46;;;;;;;;;;;;;;;-0.25;77.35;99539.25;5036493;28;19927;-31
2022/11/21 01:26:12;;;;;;;;;;;;;;;-0.22;77.53;99541.88;5054578;28;20003;-31
2022/11/21 01:28:37;;;;;;;;;;;;;;;-0.23;77.25;99529.78;5052962;28;19917;-31
2022/11/21 01:31:07;;;;;;;;;;;;;;;-0.24;77.58;99535.78;5038049;28;20434;-31
2022/11/21 01:33:32;;;;;;;;;;;;;;;-0.24;77.76;99533.19;5056555;28;19920;-31
2022/11/21 01:36:04;;;;;;;;;;;;;;;-0.23;77.84;99532.38;5056248;28;20440;-31
2022/11/21 01:38:29;;;;;;;;;;;;;;;-0.22;77.66;99528.94;5052145;28;19978;-31
2022/11/21 01:40:54;;;;;;;;;;;;;;;-0.21;77.51;99522.88;5053464;28;19921;-32
2022/11/21 01:43:20;;;;;;;;;;;;;;;-0.21;77.55;99522.88;5053004;28;19916;-31
2022/11/21 01:45:51;;;;;;;;;;;;;;;-0.21;77.39;99522.00;5053863;28;20269;-31
2022/11/21 01:48:17;;;;;;;;;;;;;;;-0.22;77.81;99521.16;5053620;28;19940;-31
2022/11/21 01:50:42;;;;;;;;;;;;;;;-0.21;77.35;99517.69;5053700;28;19960;-31
2022/11/21 01:53:07;;;;;;;;;;;;;;;-0.20;77.48;99511.66;5053585;28;19913;-31
2022/11/21 01:55:32;;;;;;;;;;;;;;;-0.20;77.48;99514.25;5034626;28;20398;-31
2022/11/21 01:57:58;;;;;;;;;;;;;;;-0.20;77.48;99503.03;5036163;28;20359;-31
2022/11/21 02:00:24;;;;;;;;;;;;;;;-0.19;77.91;99503.06;5017333;28;19948;-31
2022/11/21 02:02:50;;;;;;;;;;;;;;;-0.19;77.71;99510.84;5019248;28;19920;-31
2022/11/21 02:05:18;;;;;;;;;;;;;;;-0.20;77.75;99492.66;5046474;28;19928;-31
2022/11/21 02:07:44;;;;;;;;;;;;;;;-0.19;77.77;99510.84;5032611;28;19983;-31
2022/11/21 02:10:09;;;;;;;;;;;;;;;-0.17;77.82;99505.69;5051221;28;19917;-31
2022/11/21 02:12:37;;;;;;;;;;;;;;;-0.17;77.55;99514.31;5033151;28;19932;-31
2022/11/21 02:15:03;;;;;;;;;;;;;;;-0.17;78.16;99510.88;5023756;28;19932;-31
2022/11/21 02:17:28;;;;;;;;;;;;;;;-0.16;78.07;99510.88;5034661;28;19925;-31
2022/11/21 02:19:57;;;;;;;;;;;;;;;-0.17;77.82;99514.31;5049951;28;20062;-31
2022/11/21 02:22:25;;;;;;;;;;;;;;;-0.15;77.64;99516.94;5051256;28;19939;-31
2022/11/21 02:25:01;;;;;;;;;;;;;;;-0.15;77.43;99515.22;5034149;28;19917;-31
2022/11/21 02:27:26;;;;;;;;;;;;;;;-0.15;77.94;99515.22;5064274;28;19916;-31
2022/11/21 02:29:51;;;;;;;;;;;;;;;-0.14;78.15;99504.00;5052447;28;20394;-31
2022/11/21 02:32:21;;;;;;;;;;;;;;;-0.13;78.04;99518.69;5066501;28;19924;-31
2022/11/21 02:34:46;;;;;;;;;;;;;;;-0.10;77.68;99517.84;5031586;28;19925;-31
2022/11/21 02:37:12;;;;;;;;;;;;;;;-0.12;77.94;99504.03;5049898;28;19924;-31
2022/11/21 02:39:37;;;;;;;;;;;;;;;-0.11;77.93;99507.50;5033669;28;20222;-31
2022/11/21 02:42:04;;;;;;;;;;;;;;;-0.09;77.58;99504.06;5066009;28;19917;-31
2022/11/21 02:44:53;;;;;;;;;;;;;;;-0.09;77.78;99492.81;5029660;28;19925;-31
2022/11/21 02:47:18;;;;;;;;;;;;;;;-0.08;77.63;99491.97;5044158;28;19925;-32
2022/11/21 02:49:53;;;;;;;;;;;;;;;-0.08;77.48;99497.16;5049829;28;19916;-31
2022/11/21 02:52:18;;;;;;;;;;;;;;;-0.08;77.72;99497.16;5028497;28;19974;-31
2022/11/21 02:54:43;;;;;;;;;;;;;;;-0.07;77.89;99496.31;5033386;28;19921;-31
2022/11/21 02:57:09;;;;;;;;;;;;;;;-0.08;77.61;99497.16;5033931;28;19939;-31
2022/11/21 02:59:34;;;;;;;;;;;;;;;-0.06;77.44;99500.66;5050475;28;20423;-31
2022/11/21 03:01:59;;;;;;;;;;;;;;;-0.06;77.67;99501.53;5064706;28;20386;-31
2022/11/21 03:04:25;;;;;;;;;;;;;;;-0.05;77.64;99513.66;5051028;28;19920;-31
2022/11/21 03:06:50;;;;;;;;;;;;;;;-0.06;77.34;99511.03;5050388;28;20318;-31
2022/11/21 03:09:16;;;;;;;;;;;;;;;-0.06;77.43;99516.22;5046963;28;19934;-32
2022/11/21 03:11:41;;;;;;;;;;;;;;;-0.05;77.45;99513.66;5051682;28;19916;-31
2022/11/21 03:14:06;;;;;;;;;;;;;;;-0.05;77.97;99512.75;5050694;28;19983;-31
2022/11/21 03:16:31;;;;;;;;;;;;;;;-0.04;77.79;99506.72;5050192;28;19960;-31
2022/11/21 03:18:56;;;;;;;;;;;;;;;-0.02;77.40;99503.31;5030404;28;19920;-31
2022/11/21 03:21:22;;;;;;;;;;;;;;;-0.02;77.41;99515.41;5048946;28;19974;-31
2022/11/21 03:23:47;;;;;;;;;;;;;;;-0.03;77.77;99513.66;5048168;28;19974;-31
2022/11/21 03:26:13;;;;;;;;;;;;;;;-0.03;77.76;99514.53;5031643;28;19971;-31
2022/11/21 03:28:39;;;;;;;;;;;;;;;-0.02;77.69;99513.69;5033196;28;19916;-31
2022/11/21 03:31:05;;;;;;;;;;;;;;;-0.02;77.40;99508.50;5059507;28;19947;-32
2022/11/21 03:33:30;;;;;;;;;;;;;;;0.01;77.66;99511.97;5035979;28;19924;-31
2022/11/21 03:35:55;;;;;;;;;;;;;;;0.01;77.15;99509.38;5053200;28;19921;-31
2022/11/21 03:38:20;;;;;;;;;;;;;;;-0.02;77.74;99513.69;5063948;28;19924;-32
2022/11/21 03:40:46;;;;;;;;;;;;;;;-0.01;77.49;99519.72;5046527;28;19929;-31
2022/11/21 03:43:11;;;;;;;;;;;;;;;-0.01;77.27;99519.72;5048564;28;19924;-32
2022/11/21 03:45:36;;;;;;;;;;;;;;;-0.02;77.33;99523.19;5047092;28;19921;-31
2022/11/21 03:48:02;;;;;;;;;;;;;;;-0.01;77.33;99519.72;5048083;28;19917;-31
2022/11/21 03:50:27;;;;;;;;;;;;;;;0.01;77.23;99531.00;5048048;28;20338;-31
2022/11/21 03:52:53;;;;;;;;;;;;;;;-0.01;77.30;99545.66;5030828;28;19924;-31
2022/11/21 03:55:18;;;;;;;;;;;;;;;-0.01;77.33;99537.88;5048370;28;19925;-31
2022/11/21 03:57:44;;;;;;;;;;;;;;;0.00;77.42;99539.66;5050304;28;19917;-31
2022/11/21 04:00:09;;;;;;;;;;;;;;;-0.01;77.09;99541.34;5048009;28;19923;-31
2022/11/21 04:02:34;;;;;;;;;;;;;;;-0.01;77.65;99543.06;5034800;28;21184;-31
2022/11/21 04:05:00;;;;;;;;;;;;;;;0.01;77.41;99554.34;5049478;28;20188;-32
2022/11/21 04:07:25;;;;;;;;;;;;;;;0.02;77.54;99558.69;5052426;28;19917;-31
2022/11/21 04:09:50;;;;;;;;;;;;;;;0.00;77.72;99550.03;5036310;28;19924;-31
2022/11/21 04:12:15;;;;;;;;;;;;;;;-0.01;77.65;99556.03;5054906;28;19924;-31
2022/11/21 04:14:40;;;;;;;;;;;;;;;0.01;77.69;99553.47;5053099;28;20227;-31
2022/11/21 04:17:06;;;;;;;;;;;;;;;0.01;77.58;99559.53;5050048;28;19924;-31
2022/11/21 04:19:31;;;;;;;;;;;;;;;-0.01;77.60;99567.28;5050670;28;19932;-31
2022/11/21 04:21:57;;;;;;;;;;;;;;;0.00;77.67;99568.16;5041724;28;20189;-31
2022/11/21 04:24:22;;;;;;;;;;;;;;;0.01;78.11;99569.91;5046952;28;20303;-32
2022/11/21 04:26:47;;;;;;;;;;;;;;;0.01;77.68;99579.38;5034259;28;20295;-31
2022/11/21 04:29:13;;;;;;;;;;;;;;;0.03;77.87;99572.53;5047489;28;20053;-31
2022/11/21 04:31:38;;;;;;;;;;;;;;;0.04;77.80;99577.75;5046029;28;19966;-31
2022/11/21 04:34:03;;;;;;;;;;;;;;;0.03;77.74;99585.50;5042639;28;20289;-31
2022/11/21 04:36:28;;;;;;;;;;;;;;;0.03;77.91;99588.94;5048039;28;19917;-31
2022/11/21 04:38:53;;;;;;;;;;;;;;;0.03;77.66;99583.75;5046141;28;20011;-31
2022/11/21 04:41:19;;;;;;;;;;;;;;;0.07;77.46;99589.88;5047311;28;20011;-31
2022/11/21 04:43:44;;;;;;;;;;;;;;;0.07;77.39;99575.16;5045150;28;19959;-31
2022/11/21 04:46:09;;;;;;;;;;;;;;;0.06;77.54;99588.09;5025225;28;20017;-31
2022/11/21 04:48:34;;;;;;;;;;;;;;;0.09;77.40;99588.16;5047122;28;20051;-31
2022/11/21 04:51:00;;;;;;;;;;;;;;;0.06;77.61;99589.00;5056855;28;19921;-32
2022/11/21 04:53:25;;;;;;;;;;;;;;;0.07;77.54;99595.91;5033191;28;19921;-31
2022/11/21 04:55:51;;;;;;;;;;;;;;;0.07;77.87;99605.44;5036877;28;19917;-31
2022/11/21 04:58:16;;;;;;;;;;;;;;;0.03;77.43;99604.50;5015989;28;19971;-31
2022/11/21 05:00:41;;;;;;;;;;;;;;;0.06;77.48;99599.34;5056808;28;19920;-31
2022/11/21 05:03:06;;;;;;;;;;;;;;;0.04;77.53;99595.88;5051300;28;19929;-32
2022/11/21 05:05:32;;;;;;;;;;;;;;;0.05;77.85;99604.53;5053009;28;19921;-31
2022/11/21 05:07:57;;;;;;;;;;;;;;;0.06;77.25;99594.19;5055328;28;19928;-31
2022/11/21 05:10:22;;;;;;;;;;;;;;;0.07;77.35;99606.28;5049735;28;19912;-31
2022/11/21 05:15:31;;;;;;;;;;;;;;;0.05;77.76;99618.38;5037666;28;19998;-31
2022/11/21 05:17:59;;;;;;;;;;;;;;;0.07;77.40;99623.59;5054389;28;20394;-31
2022/11/21 05:20:24;;;;;;;;;;;;;;;0.06;77.66;99620.09;5053506;28;19916;-31
2022/11/21 05:22:50;;;;;;;;;;;;;;;0.07;77.58;99624.44;5049394;28;19925;-31
2022/11/21 05:25:15;;;;;;;;;;;;;;;0.05;77.69;99623.56;5052181;28;20107;-31
2022/11/21 05:27:40;;;;;;;;;;;;;;;0.07;77.65;99624.44;5054271;28;19917;-31
2022/11/21 05:30:06;;;;;;;;;;;;;;;0.10;77.36;99632.28;5052811;28;19925;-31
2022/11/21 05:32:31;;;;;;;;;;;;;;;0.08;77.27;99633.97;5051740;28;19917;-31
2022/11/21 05:34:56;;;;;;;;;;;;;;;0.09;77.48;99634.84;5053474;28;19921;-31
2022/11/21 05:37:22;;;;;;;;;;;;;;;0.09;77.41;99640.03;5036770;28;19913;-31
2022/11/21 05:39:47;;;;;;;;;;;;;;;0.08;77.52;99644.34;5052704;28;19925;-31
2022/11/21 05:42:12;;;;;;;;;;;;;;;0.07;77.88;99652.97;5019774;28;20332;-31
2022/11/21 05:44:37;;;;;;;;;;;;;;;0.06;77.21;99653.81;5033216;28;19920;-31
2022/11/21 05:47:03;;;;;;;;;;;;;;;0.06;77.18;99655.53;5052902;28;19917;-31
2022/11/21 05:49:28;;;;;;;;;;;;;;;0.05;77.68;99665.03;5053217;28;20007;-31
2022/11/21 05:51:53;;;;;;;;;;;;;;;0.06;77.36;99677.16;5053380;28;19917;-31
2022/11/21 05:54:18;;;;;;;;;;;;;;;0.05;77.76;99664.16;5053934;28;19921;-31
2022/11/21 05:56:44;;;;;;;;;;;;;;;0.10;77.42;99676.34;5053124;28;19927;-31
2022/11/21 05:59:09;;;;;;;;;;;;;;;0.10;77.46;99673.75;5030828;28;19924;-31
2022/11/21 06:04:18;;;;;;;;;;;;;;;0.07;77.74;99680.63;5037385;28;20298;-31
2022/11/21 06:06:44;;;;;;;;;;;;;;;0.08;77.60;99680.66;5053520;28;19916;-31
2022/11/21 06:09:09;;;;;;;;;;;;;;;0.06;77.85;99684.94;5051907;28;19938;-31
2022/11/21 06:11:34;;;;;;;;;;;;;;;0.07;77.41;99691.00;5033500;28;19917;-31
2022/11/21 06:13:59;;;;;;;;;;;;;;;0.06;77.52;99692.72;5054134;28;20316;-31
2022/11/21 06:16:24;;;;;;;;;;;;;;;0.06;77.91;99695.28;5053995;28;19920;-31
2022/11/21 06:18:53;;;;;;;;;;;;;;;0.06;77.55;99687.53;5054583;28;20035;-31
2022/11/21 06:21:19;;;;;;;;;;;;;;;0.09;77.60;99694.47;5054398;28;19917;-31
2022/11/21 06:23:45;;;;;;;;;;;;;;;0.07;77.94;99694.44;5054593;28;19913;-31
2022/11/21 06:26:12;;;;;;;;;;;;;;;0.07;77.71;99706.56;5053167;28;19924;-31
2022/11/21 06:28:37;;;;;;;;;;;;;;;0.09;77.81;99717.81;5054371;28;19942;-31
2022/11/21 06:31:10;;;;;;;;;;;;;;;0.08;77.84;99722.16;5054313;28;20007;-31
2022/11/21 06:33:35;;;;;;;;;;;;;;;0.06;77.79;99725.53;5054572;28;19913;-31
2022/11/21 06:36:07;;;;;;;;;;;;;;;0.06;77.93;99728.13;5054085;28;19966;-31
2022/11/21 06:38:32;;;;;;;;;;;;;;;0.04;77.91;99735.91;5054536;28;19917;-31
2022/11/21 06:40:57;;;;;;;;;;;;;;;0.04;77.89;99738.50;5053196;28;20356;-31
2022/11/21 06:43:23;;;;;;;;;;;;;;;0.05;78.11;99739.34;5053753;28;19967;-31
2022/11/21 06:45:48;;;;;;;;;;;;;;;0.07;78.01;99735.94;5054144;28;19923;-31
2022/11/21 06:48:13;;;;;;;;;;;;;;;0.10;77.86;99741.19;5053995;28;20012;-31
2022/11/21 06:50:38;;;;;;;;;;;;;;;0.08;77.67;99737.72;5036396;28;19920;-31
2022/11/21 06:53:04;;;;;;;;;;;;;;;0.12;78.15;99743.81;5053990;28;19940;-31
2022/11/21 06:55:29;;;;;;;;;;;;;;;0.11;78.19;99748.09;5052229;28;19921;-31
2022/11/21 06:57:58;;;;;;;;;;;;;;;0.11;77.77;99748.09;5052779;28;19917;-31
2022/11/21 07:00:23;;;;;;;;;;;;;;;0.14;77.64;99754.22;5052025;28;19951;-32
2022/11/21 07:02:49;;;;;;;;;;;;;;;0.12;78.07;99760.25;5046327;28;19916;-31
2022/11/21 07:05:14;;;;;;;;;;;;;;;0.12;77.58;99767.16;5050551;28;19913;-31
2022/11/21 07:07:39;;;;;;;;;;;;;;;0.11;78.06;99763.66;5037279;28;20402;-31
2022/11/21 07:10:05;;;;;;;;;;;;;;;0.12;77.72;99770.63;5055511;28;20435;-31
2022/11/21 07:15:14;;;;;;;;;;;;;;;0.12;78.19;99770.63;5066212;28;19970;-31
2022/11/21 07:17:40;;;;;;;;;;;;;;;0.12;78.11;99770.63;5068593;28;20322;-31
2022/11/21 07:20:05;;;;;;;;;;;;;;;0.10;78.07;99767.13;5037641;28;19917;-31
2022/11/21 07:22:30;;;;;;;;;;;;;;;0.13;77.60;99771.47;5069324;28;19960;-31
2022/11/21 07:24:56;;;;;;;;;;;;;;;0.13;77.84;99771.47;5053746;28;19919;-31
2022/11/21 07:27:21;;;;;;;;;;;;;;;0.15;78.23;99774.09;5035658;28;19973;-31
2022/11/21 07:29:46;;;;;;;;;;;;;;;0.12;78.07;99772.34;5052459;28;20003;-31
2022/11/21 07:32:11;;;;;;;;;;;;;;;0.10;77.95;99772.31;5053146;28;20011;-31
2022/11/21 07:34:36;;;;;;;;;;;;;;;0.11;77.82;99773.19;5067240;28;20012;-33
2022/11/21 07:37:02;;;;;;;;;;;;;;;0.09;78.19;99775.75;5052971;28;20449;-34
2022/11/21 07:39:27;;;;;;;;;;;;;;;0.10;78.26;99777.50;5035468;28;20286;-34
2022/11/21 07:41:52;;;;;;;;;;;;;;;0.11;78.42;99786.16;5052871;28;19917;-34
2022/11/21 07:44:17;;;;;;;;;;;;;;;0.14;78.14;99785.34;5052886;28;19927;-34
2022/11/21 07:46:43;;;;;;;;;;;;;;;0.11;78.30;99784.41;5034662;28;19912;-33
2022/11/21 07:49:08;;;;;;;;;;;;;;;0.12;77.95;99786.19;5052700;28;20256;-34
2022/11/21 07:51:33;;;;;;;;;;;;;;;0.15;77.78;99797.44;5052812;28;19952;-33
2022/11/21 07:53:58;;;;;;;;;;;;;;;0.16;77.92;99786.25;5052649;28;19916;-34
2022/11/21 07:56:25;;;;;;;;;;;;;;;0.14;77.71;99782.75;5050447;28;19917;-33
2022/11/21 07:58:51;;;;;;;;;;;;;;;0.14;78.29;99790.53;5053001;28;19913;-34
2022/11/21 08:01:16;;;;;;;;;;;;;;;0.14;78.00;99790.53;5051592;28;19924;-34
2022/11/21 08:03:41;;;;;;;;;;;;;;;0.16;78.41;99796.63;5052090;28;19924;-33
2022/11/21 08:06:08;;;;;;;;;;;;;;;0.16;78.39;99797.47;5053039;28;19917;-34
2022/11/21 08:08:33;;;;;;;;;;;;;;;0.15;78.17;99802.63;5068665;28;19913;-34
2022/11/21 08:10:58;;;;;;;;;;;;;;;0.16;78.08;99796.63;5053624;28;19951;-34
2022/11/21 08:13:23;;;;;;;;;;;;;;;0.18;78.45;99811.38;5051157;28;20303;-34
2022/11/21 08:15:49;;;;;;;;;;;;;;;0.19;77.90;99797.53;5053092;28;19920;-34
2022/11/21 08:18:15;;;;;;;;;;;;;;;0.19;78.29;99801.84;5052685;28;19917;-34
2022/11/21 08:20:40;;;;;;;;;;;;;;;0.17;78.58;99803.56;5052150;28;20296;-33
2022/11/21 08:23:06;;;;;;;;;;;;;;;0.16;78.43;99812.19;5029968;28;19924;-31
2022/11/21 08:25:31;;;;;;;;;;;;;;;0.19;78.41;99820.00;5033891;28;19962;-34
2022/11/21 08:27:57;;;;;;;;;;;;;;;0.18;78.40;99815.66;5052058;28;19913;-33
2022/11/21 08:30:22;;;;;;;;;;;;;;;0.16;78.49;99822.56;5044563;28;19916;-34
2022/11/21 08:32:47;;;;;;;;;;;;;;;0.17;78.42;99825.16;5052365;28;20357;-34
2022/11/21 08:35:13;;;;;;;;;;;;;;;0.18;78.01;99833.81;5033281;28;19921;-33
2022/11/21 08:37:38;;;;;;;;;;;;;;;0.19;78.54;99825.19;5030628;28;20419;-34
2022/11/21 08:40:03;;;;;;;;;;;;;;;0.19;78.59;99822.59;5052822;28;19913;-34
2022/11/21 08:42:28;;;;;;;;;;;;;;;0.18;78.06;99819.16;5052349;28;20375;-34
2022/11/21 08:44:54;;;;;;;;;;;;;;;0.22;78.23;99823.53;5052365;28;19956;-34
2022/11/21 08:47:19;;;;;;;;;;;;;;;0.24;78.92;99820.97;5051342;28;20294;-33
2022/11/21 08:49:44;;;;;;;;;;;;;;;0.23;78.63;99814.91;5051377;28;19921;-34
2022/11/21 08:52:10;;;;;;;;;;;;;;;0.24;78.61;99824.44;5051459;28;19939;-34
2022/11/21 08:54:35;;;;;;;;;;;;;;;0.24;78.70;99820.97;5051341;28;19917;-34
2022/11/21 08:57:00;;;;;;;;;;;;;;;0.26;78.90;99819.28;5006746;28;19921;-34
2022/11/21 08:59:25;;;;;;;;;;;;;;;0.28;78.93;99816.72;5048893;28;19917;-33
2022/11/21 09:01:51;;;;;;;;;;;;;;;0.29;78.89;99823.66;5056319;28;20280;-34
2022/11/21 09:04:17;;;;;;;;;;;;;;;0.31;78.74;99827.16;5050181;28;20394;-33
2022/11/21 09:06:42;;;;;;;;;;;;;;;0.32;78.51;99834.97;5049443;28;20309;-31
2022/11/21 09:09:08;;;;;;;;;;;;;;;0.33;78.60;99836.72;5049694;28;20418;-31
2022/11/21 09:11:34;;;;;;;;;;;;;;;0.36;78.67;99836.78;5015903;28;19943;-31
2022/11/21 09:19:27;;;;;;;;;;;;;;;0.43;78.21;99842.94;5050002;28;19958;-31
2022/11/21 09:21:53;;;;;;;;;;;;;;;0.45;78.15;99841.28;5063091;28;19917;-31
2022/11/21 09:24:18;;;;;;;;;;;;;;;0.48;78.38;99843.03;5063021;28;20016;-31
2022/11/21 09:26:44;;;;;;;;;;;;;;;0.49;78.43;99845.66;5040086;28;19916;-31
2022/11/21 09:29:13;;;;;;;;;;;;;;;0.51;78.36;99843.09;5051967;28;19920;-31
2022/11/21 09:31:39;;;;;;;;;;;;;;;0.54;78.28;99840.56;5038926;28;19921;-31
2022/11/21 09:34:05;;;;;;;;;;;;;;;0.55;78.02;99844.03;5050920;28;19982;-31
2022/11/21 09:36:30;;;;;;;;;;;;;;;0.56;78.12;99841.47;5050967;28;19912;-31
2022/11/21 09:38:55;;;;;;;;;;;;;;;0.58;77.83;99841.50;5051392;28;19913;-31
2022/11/21 09:44:16;;;;;;;;;;;;;;;0.62;77.73;99844.19;5039349;28;19920;-31
2022/11/21 09:46:44;;;;;;;;;;;;;;;0.64;77.83;99847.66;5054999;28;19970;-31
2022/11/21 09:49:09;;;;;;;;;;;;;;;0.65;77.94;99853.75;5037927;28;19916;-31
2022/11/21 09:51:34;;;;;;;;;;;;;;;0.67;77.59;99856.38;5056053;28;19925;-31
2022/11/21 09:54:01;;;;;;;;;;;;;;;0.68;77.78;99852.91;5064580;28;19913;-31
2022/11/21 09:56:26;;;;;;;;;;;;;;;0.69;77.83;99855.53;5055335;28;20278;-31
2022/11/21 09:59:11;;;;;;;;;;;;;;;0.72;78.21;99859.91;5073777;28;19913;-31
2022/11/21 10:01:36;;;;;;;;;;;;;;;0.72;77.96;99859.91;5055932;28;19923;-31
2022/11/21 10:04:02;;;;;;;;;;;;;;;0.73;78.22;99859.09;5054960;28;19916;-31
2022/11/21 10:06:28;;;;;;;;;;;;;;;0.75;78.29;99866.03;5053601;28;19916;-31
2022/11/21 10:09:12;;;;;;;;;;;;;;;0.75;78.00;99863.44;5050615;28;20379;-31
2022/11/21 10:14:46;;;;;;;;;;;;;;;0.79;78.25;99866.97;5051897;28;19928;-31
2022/11/21 10:17:21;;;;;;;;;;;;;;;0.80;78.36;99863.50;5048455;28;19995;-31
2022/11/21 10:19:46;;;;;;;;;;;;;;;0.82;78.37;99863.53;5037028;28;19913;-31
2022/11/21 10:22:24;;;;;;;;;;;;;;;0.83;78.17;99863.56;5054478;28;19939;-31
2022/11/21 10:24:52;;;;;;;;;;;;;;;0.85;78.24;99861.88;5036122;28;19921;-31
2022/11/21 10:27:25;;;;;;;;;;;;;;;0.87;78.10;99861.91;5054036;28;19913;-31
2022/11/21 10:29:55;;;;;;;;;;;;;;;0.88;78.19;99867.13;5039540;28;19963;-31
2022/11/21 10:32:30;;;;;;;;;;;;;;;0.92;78.38;99864.56;5036731;28;20379;-31
2022/11/21 10:35:00;;;;;;;;;;;;;;;0.93;78.49;99864.59;5069523;28;19970;-31
2022/11/21 10:37:29;;;;;;;;;;;;;;;0.95;78.30;99862.03;5069763;28;19987;-31
2022/11/21 10:39:54;;;;;;;;;;;;;;;0.97;78.39;99849.97;5054279;28;20289;-31
2022/11/21 10:42:35;;;;;;;;;;;;;;;1.00;78.12;99857.81;5053024;28;19925;-32
2022/11/21 10:45:16;;;;;;;;;;;;;;;1.02;78.40;99853.50;5040711;28;19920;-31
2022/11/21 10:47:42;;;;;;;;;;;;;;;1.03;78.51;99865.63;5019586;28;19920;-31
2022/11/21 10:50:19;;;;;;;;;;;;;;;1.04;78.18;99854.41;5035405;28;19914;-31
2022/11/21 10:52:48;;;;;;;;;;;;;;;1.06;78.00;99851.84;5041406;28;19917;-31
2022/11/21 10:55:13;;;;;;;;;;;;;;;1.08;77.86;99848.41;5069346;28;19917;-31
2022/11/21 10:57:49;;;;;;;;;;;;;;;1.10;78.11;99838.06;5054526;28;20354;-31
2022/11/21 11:00:24;;;;;;;;;;;;;;;1.12;78.12;99832.03;5050334;28;19919;-31
2022/11/21 11:02:55;;;;;;;;;;;;;;;1.14;78.24;99832.91;5054200;28;20284;-31
2022/11/21 11:05:21;;;;;;;;;;;;;;;1.16;78.07;99835.53;5053458;28;19912;-31
2022/11/21 11:08:05;;;;;;;;;;;;;;;1.19;78.02;99829.50;5053437;28;20394;-32
2022/11/21 11:10:31;;;;;;;;;;;;;;;1.21;77.83;99827.81;5053871;28;19945;-31
2022/11/21 11:15:55;;;;;;;;;;;;;;;1.25;77.89;99814.91;5060313;28;20438;-32
2022/11/21 11:18:21;;;;;;;;;;;;;;;1.29;77.92;99815.81;5053683;28;19917;-32
2022/11/21 11:20:46;;;;;;;;;;;;;;;1.32;78.06;99807.19;5057254;28;19917;-32
2022/11/21 11:23:15;;;;;;;;;;;;;;;1.34;77.91;99814.19;5065248;28;20382;-31
2022/11/21 11:25:48;;;;;;;;;;;;;;;1.37;77.92;99813.34;5060429;28;20383;-32
2022/11/21 11:28:13;;;;;;;;;;;;;;;1.40;77.68;99814.25;5057431;28;19963;-32
2022/11/21 11:30:39;;;;;;;;;;;;;;;1.42;77.80;99816.88;5025659;28;20011;-32
2022/11/21 11:33:08;;;;;;;;;;;;;;;1.46;77.99;99815.22;5035291;28;19913;-32
2022/11/21 11:35:33;;;;;;;;;;;;;;;1.49;77.90;99813.53;5036251;28;19963;-32
2022/11/21 11:38:05;;;;;;;;;;;;;;;1.53;77.86;99819.63;5037209;28;19913;-32
2022/11/21 11:40:30;;;;;;;;;;;;;;;1.57;77.98;99817.97;5052057;28;19927;-32
2022/11/21 11:48:52;;;;;;;;;;;;;;;1.69;77.58;99825.03;5045863;28;19927;-32
2022/11/21 11:51:21;;;;;;;;;;;;;;;1.72;77.71;99835.47;5046773;28;20395;-32
2022/11/21 11:53:51;;;;;;;;;;;;;;;1.74;77.61;99833.78;5021003;28;20373;-32
2022/11/21 11:56:19;;;;;;;;;;;;;;;1.76;77.55;99822.56;5050251;28;19925;-32
2022/11/21 11:58:59;;;;;;;;;;;;;;;1.79;77.47;99816.50;5033125;28;19924;-32
2022/11/21 12:01:39;;;;;;;;;;;;;;;1.80;77.46;99807.84;5039262;28;20008;-32
2022/11/21 12:04:17;;;;;;;;;;;;;;;1.81;77.41;99804.41;5044893;28;19917;-32
2022/11/21 12:06:44;;;;;;;;;;;;;;;1.83;77.20;99807.03;5044982;28;19966;-32
2022/11/21 12:09:19;;;;;;;;;;;;;;;1.84;77.41;99803.56;5035385;28;19920;-32
2022/11/21 12:17:26;;;;;;;;;;;;;;;1.85;77.00;99801.00;5048097;28;19979;-32
2022/11/21 12:19:51;;;;;;;;;;;;;;;1.84;77.31;99799.25;5014733;28;19917;-31
2022/11/21 12:22:17;;;;;;;;;;;;;;;1.85;77.00;99794.91;5042338;28;20398;-32
2022/11/21 12:24:42;;;;;;;;;;;;;;;1.85;77.17;99797.50;5051730;28;19920;-32
2022/11/21 12:27:25;;;;;;;;;;;;;;;1.86;77.00;99791.44;5051419;28;19955;-32
2022/11/21 12:29:51;;;;;;;;;;;;;;;1.85;76.96;99793.19;5052119;28;19917;-31
2022/11/21 12:32:35;;;;;;;;;;;;;;;1.85;76.87;99798.41;5034139;28;19920;-32
2022/11/21 12:35:00;;;;;;;;;;;;;;;1.85;77.09;99790.59;5051204;28;20459;-32
2022/11/21 12:37:38;;;;;;;;;;;;;;;1.85;77.02;99798.41;5052871;28;19959;-32
2022/11/21 12:40:22;;;;;;;;;;;;;;;1.85;76.77;99789.72;5034648;28;19913;-32
2022/11/21 12:43:06;;;;;;;;;;;;;;;1.85;77.02;99785.41;5051942;28;19913;-32
2022/11/21 12:45:35;;;;;;;;;;;;;;;1.85;77.13;99779.31;5053583;28;19917;-32
2022/11/21 12:56:26;;;;;;;;;;;;;;;1.83;77.03;99771.50;5052910;28;20024;-31
2022/11/21 12:58:51;;;;;;;;;;;;;;;1.83;77.07;99768.03;5052529;28;19989;-31
2022/11/21 13:01:23;;;;;;;;;;;;;;;1.84;77.36;99773.25;5053541;28;20427;-31
2022/11/21 13:03:58;;;;;;;;;;;;;;;1.84;77.03;99773.25;5066790;28;19917;-31
2022/11/21 13:06:27;;;;;;;;;;;;;;;1.84;77.12;99761.97;5049787;28;20391;-31
2022/11/21 13:08:53;;;;;;;;;;;;;;;1.83;77.40;99750.69;5049071;28;19923;-31
2022/11/21 13:14:13;;;;;;;;;;;;;;;1.84;77.18;99747.25;5052319;28;20275;-31
2022/11/21 13:16:43;;;;;;;;;;;;;;;1.84;77.38;99735.97;5036733;28;19921;-31
2022/11/21 13:19:29;;;;;;;;;;;;;;;1.85;77.23;99740.31;5055582;28;19921;-32
2022/11/21 13:21:54;;;;;;;;;;;;;;;1.85;77.35;99736.00;5022810;28;19917;-31
2022/11/21 13:24:38;;;;;;;;;;;;;;;1.85;77.18;99728.19;5036156;28;19917;-31
2022/11/21 13:27:05;;;;;;;;;;;;;;;1.86;77.28;99726.44;5054643;28;19987;-31
2022/11/21 13:29:30;;;;;;;;;;;;;;;1.85;77.33;99723.00;5044627;28;19917;-32
2022/11/21 13:31:55;;;;;;;;;;;;;;;1.85;77.48;99711.69;5036537;28;19923;-31
2022/11/21 13:34:30;;;;;;;;;;;;;;;1.85;77.45;99712.59;5053594;28;20358;-31
2022/11/21 13:36:55;;;;;;;;;;;;;;;1.85;77.21;99715.19;5048510;28;19917;-31